createdAt,value
2022-12-18T00:00:00.175Z,1018.01
2022-12-18T00:01:00.095Z,1018.01
2022-12-18T00:02:00.251Z,1018.00
2022-12-18T00:03:00.224Z,1018.00
2022-12-18T00:04:00.222Z,1018.00
2022-12-18T00:05:00.057Z,1018.00
2022-12-18T00:06:00.035Z,1018.01
2022-12-18T00:07:00.027Z,1018.01
2022-12-18T00:08:00.028Z,1018.01
2022-12-18T00:09:00.024Z,1018.02
2022-12-18T00:10:00.040Z,1018.01
2022-12-18T00:11:00.027Z,1018.00
2022-12-18T00:11:59.979Z,1018.00
2022-12-18T00:13:09.946Z,1017.99
2022-12-18T00:13:59.972Z,1017.99
2022-12-18T00:14:59.953Z,1018.00
2022-12-18T00:16:00.956Z,1017.99
2022-12-18T00:16:59.941Z,1017.99
2022-12-18T00:17:59.924Z,1017.99
2022-12-18T00:18:59.931Z,1017.98
2022-12-18T00:19:59.897Z,1017.99
2022-12-18T00:20:59.899Z,1018.00
2022-12-18T00:21:59.944Z,1018.00
2022-12-18T00:22:59.909Z,1018.00
2022-12-18T00:23:59.893Z,1018.02
2022-12-18T00:24:59.864Z,1018.03
2022-12-18T00:25:59.856Z,1018.04
2022-12-18T00:26:59.832Z,1018.05
2022-12-18T00:27:59.960Z,1018.06
2022-12-18T00:28:59.803Z,1018.05
2022-12-18T00:29:59.818Z,1018.05
2022-12-18T00:30:59.791Z,1018.06
2022-12-18T00:31:59.842Z,1018.06
2022-12-18T00:32:59.791Z,1018.05
2022-12-18T00:33:59.810Z,1018.04
2022-12-18T00:34:59.737Z,1018.04
2022-12-18T00:35:59.731Z,1018.02
2022-12-18T00:36:59.858Z,1018.00
2022-12-18T00:37:59.709Z,1017.99
2022-12-18T00:38:59.743Z,1018.00
2022-12-18T00:39:59.712Z,1017.99
2022-12-18T00:40:59.701Z,1017.98
2022-12-18T00:41:59.679Z,1017.97
2022-12-18T00:42:59.671Z,1017.96
2022-12-18T00:43:59.668Z,1017.97
2022-12-18T00:44:59.640Z,1017.97
2022-12-18T00:45:59.715Z,1017.95
2022-12-18T00:46:59.678Z,1017.93
2022-12-18T00:47:59.643Z,1017.92
2022-12-18T00:48:59.605Z,1017.89
2022-12-18T00:49:59.601Z,1017.93
2022-12-18T00:50:59.594Z,1017.95
2022-12-18T00:51:59.717Z,1017.98
2022-12-18T00:52:59.577Z,1018.01
2022-12-18T00:53:59.555Z,1018.04
2022-12-18T00:55:04.479Z,1018.06
2022-12-18T00:55:59.556Z,1018.06
2022-12-18T00:56:59.534Z,1018.07
2022-12-18T00:57:59.578Z,1018.06
2022-12-18T00:58:59.517Z,1018.05
2022-12-18T00:59:59.483Z,1018.06
2022-12-18T01:00:59.543Z,1018.06
2022-12-18T01:01:59.565Z,1018.07
2022-12-18T01:02:59.486Z,1018.06
2022-12-18T01:03:59.577Z,1018.07
2022-12-18T01:04:59.452Z,1018.11
2022-12-18T01:05:59.443Z,1018.12
2022-12-18T01:06:59.417Z,1018.13
2022-12-18T01:07:59.432Z,1018.11
2022-12-18T01:08:59.414Z,1018.10
2022-12-18T01:09:59.516Z,1018.12
2022-12-18T01:10:59.425Z,1018.14
2022-12-18T01:11:59.350Z,1018.13
2022-12-18T01:13:07.592Z,1018.11
2022-12-18T01:13:59.920Z,1018.10
2022-12-18T01:15:00.142Z,1018.07
2022-12-18T01:15:59.928Z,1018.05
2022-12-18T01:17:00.249Z,1018.07
2022-12-18T01:18:00.155Z,1018.09
2022-12-18T01:19:00.161Z,1018.10
2022-12-18T01:19:59.842Z,1018.11
2022-12-18T01:21:00.482Z,1018.15
2022-12-18T01:22:00.084Z,1018.17
2022-12-18T01:23:00.573Z,1018.19
2022-12-18T01:24:00.605Z,1018.21
2022-12-18T01:24:59.384Z,1018.21
2022-12-18T01:26:00.213Z,1018.21
2022-12-18T01:27:00.012Z,1018.23
2022-12-18T01:27:59.917Z,1018.25
2022-12-18T01:29:00.178Z,1018.29
2022-12-18T01:30:00.446Z,1018.29
2022-12-18T01:31:01.170Z,1018.27
2022-12-18T01:32:00.704Z,1018.26
2022-12-18T01:33:00.387Z,1018.26
2022-12-18T01:34:00.574Z,1018.31
2022-12-18T01:35:00.341Z,1018.35
2022-12-18T01:36:00.076Z,1018.36
2022-12-18T01:36:59.264Z,1018.38
2022-12-18T01:37:59.477Z,1018.40
2022-12-18T01:38:59.278Z,1018.40
2022-12-18T01:40:00.220Z,1018.40
2022-12-18T01:40:59.190Z,1018.38
2022-12-18T01:41:59.507Z,1018.35
2022-12-18T01:42:59.516Z,1018.34
2022-12-18T01:43:59.118Z,1018.31
2022-12-18T01:44:59.629Z,1018.30
2022-12-18T01:46:00.692Z,1018.27
2022-12-18T01:46:59.745Z,1018.26
2022-12-18T01:47:59.194Z,1018.23
2022-12-18T01:49:00.171Z,1018.20
2022-12-18T01:49:59.157Z,1018.16
2022-12-18T01:50:59.157Z,1018.12
2022-12-18T01:52:00.904Z,1018.12
2022-12-18T01:52:59.075Z,1018.13
2022-12-18T01:53:59.288Z,1018.14
2022-12-18T01:54:59.184Z,1018.14
2022-12-18T01:55:59.443Z,1018.16
2022-12-18T01:56:58.994Z,1018.13
2022-12-18T01:58:00.385Z,1018.11
2022-12-18T01:58:59.111Z,1018.09
2022-12-18T01:59:59.051Z,1018.10
2022-12-18T02:00:59.059Z,1018.12
2022-12-18T02:02:00.297Z,1018.13
2022-12-18T02:03:00.176Z,1018.17
2022-12-18T02:04:00.698Z,1018.16
2022-12-18T02:04:59.364Z,1018.16
2022-12-18T02:05:58.963Z,1018.17
2022-12-18T02:06:58.962Z,1018.14
2022-12-18T02:07:58.868Z,1018.12
2022-12-18T02:08:58.873Z,1018.12
2022-12-18T02:09:59.090Z,1018.10
2022-12-18T02:10:58.990Z,1018.08
2022-12-18T02:11:59.000Z,1018.08
2022-12-18T02:13:06.410Z,1018.10
2022-12-18T02:13:58.727Z,1018.10
2022-12-18T02:14:58.695Z,1018.06
2022-12-18T02:15:58.878Z,1018.08
2022-12-18T02:16:58.726Z,1018.07
2022-12-18T02:17:58.705Z,1018.05
2022-12-18T02:18:58.675Z,1018.06
2022-12-18T02:19:58.667Z,1018.05
2022-12-18T02:20:58.646Z,1018.06
2022-12-18T02:21:58.744Z,1018.06
2022-12-18T02:22:58.633Z,1018.05
2022-12-18T02:23:58.635Z,1018.04
2022-12-18T02:24:58.610Z,1018.01
2022-12-18T02:25:58.597Z,1017.99
2022-12-18T02:26:58.591Z,1018.01
2022-12-18T02:27:58.733Z,1018.03
2022-12-18T02:28:58.614Z,1018.05
2022-12-18T02:29:59.173Z,1018.09
2022-12-18T02:30:58.562Z,1018.10
2022-12-18T02:31:58.558Z,1018.10
2022-12-18T02:32:58.535Z,1018.07
2022-12-18T02:33:58.655Z,1018.06
2022-12-18T02:34:58.517Z,1018.05
2022-12-18T02:35:58.502Z,1018.06
2022-12-18T02:36:58.496Z,1018.07
2022-12-18T02:37:58.495Z,1018.07
2022-12-18T02:38:58.457Z,1018.10
2022-12-18T02:39:58.611Z,1018.12
2022-12-18T02:40:58.430Z,1018.11
2022-12-18T02:41:58.437Z,1018.14
2022-12-18T02:42:58.421Z,1018.20
2022-12-18T02:43:58.427Z,1018.21
2022-12-18T02:44:58.394Z,1018.25
2022-12-18T02:45:58.704Z,1018.29
2022-12-18T02:46:58.364Z,1018.29
2022-12-18T02:47:58.366Z,1018.32
2022-12-18T02:48:58.355Z,1018.33
2022-12-18T02:49:58.350Z,1018.35
2022-12-18T02:50:58.393Z,1018.37
2022-12-18T02:51:58.375Z,1018.38
2022-12-18T02:52:58.324Z,1018.37
2022-12-18T02:53:58.323Z,1018.37
2022-12-18T02:54:58.753Z,1018.36
2022-12-18T02:55:58.288Z,1018.37
2022-12-18T02:56:58.274Z,1018.35
2022-12-18T02:57:58.392Z,1018.32
2022-12-18T02:58:58.250Z,1018.30
2022-12-18T02:59:58.252Z,1018.27
2022-12-18T03:00:58.276Z,1018.26
2022-12-18T03:01:58.479Z,1018.15
2022-12-18T03:02:58.407Z,1018.14
2022-12-18T03:03:58.340Z,1018.17
2022-12-18T03:04:58.214Z,1018.17
2022-12-18T03:05:58.194Z,1018.18
2022-12-18T03:06:58.164Z,1018.18
2022-12-18T03:07:58.250Z,1018.18
2022-12-18T03:08:58.167Z,1018.18
2022-12-18T03:09:58.269Z,1018.19
2022-12-18T03:10:58.144Z,1018.19
2022-12-18T03:11:58.176Z,1018.19
2022-12-18T03:13:05.444Z,1018.19
2022-12-18T03:13:58.097Z,1018.19
2022-12-18T03:14:58.082Z,1018.16
2022-12-18T03:15:58.198Z,1018.11
2022-12-18T03:16:58.113Z,1018.13
2022-12-18T03:17:58.054Z,1018.13
2022-12-18T03:18:58.050Z,1018.16
2022-12-18T03:19:58.032Z,1018.18
2022-12-18T03:20:58.025Z,1018.20
2022-12-18T03:21:58.149Z,1018.22
2022-12-18T03:22:58.003Z,1018.22
2022-12-18T03:23:57.992Z,1018.25
2022-12-18T03:24:57.974Z,1018.22
2022-12-18T03:25:59.297Z,1018.22
2022-12-18T03:26:57.952Z,1018.24
2022-12-18T03:27:57.973Z,1018.26
2022-12-18T03:28:57.940Z,1018.25
2022-12-18T03:29:57.929Z,1018.31
2022-12-18T03:30:58.012Z,1018.34
2022-12-18T03:31:57.930Z,1018.38
2022-12-18T03:33:00.366Z,1018.42
2022-12-18T03:33:57.918Z,1018.42
2022-12-18T03:34:57.879Z,1018.42
2022-12-18T03:35:57.872Z,1018.43
2022-12-18T03:36:57.853Z,1018.44
2022-12-18T03:37:57.856Z,1018.42
2022-12-18T03:38:57.827Z,1018.39
2022-12-18T03:39:57.861Z,1018.35
2022-12-18T03:40:57.817Z,1018.37
2022-12-18T03:41:57.839Z,1018.30
2022-12-18T03:42:57.788Z,1018.33
2022-12-18T03:43:57.800Z,1018.33
2022-12-18T03:44:57.786Z,1018.32
2022-12-18T03:45:57.950Z,1018.34
2022-12-18T03:46:57.787Z,1018.34
2022-12-18T03:47:57.740Z,1018.29
2022-12-18T03:48:57.761Z,1018.31
2022-12-18T03:49:57.726Z,1018.26
2022-12-18T03:50:57.707Z,1018.27
2022-12-18T03:51:57.850Z,1018.26
2022-12-18T03:52:57.685Z,1018.28
2022-12-18T03:53:57.681Z,1018.25
2022-12-18T03:54:57.673Z,1018.23
2022-12-18T03:55:57.658Z,1018.21
2022-12-18T03:56:57.643Z,1018.17
2022-12-18T03:57:57.799Z,1018.14
2022-12-18T03:58:57.625Z,1018.12
2022-12-18T03:59:57.621Z,1018.14
2022-12-18T04:00:57.615Z,1018.13
2022-12-18T04:01:57.718Z,1018.12
2022-12-18T04:02:57.596Z,1018.14
2022-12-18T04:03:57.848Z,1018.16
2022-12-18T04:04:57.565Z,1018.12
2022-12-18T04:05:57.562Z,1018.15
2022-12-18T04:06:57.594Z,1018.12
2022-12-18T04:07:57.539Z,1018.11
2022-12-18T04:08:57.522Z,1018.11
2022-12-18T04:09:57.722Z,1018.12
2022-12-18T04:10:57.531Z,1018.12
2022-12-18T04:11:57.516Z,1018.15
2022-12-18T04:13:50.110Z,1018.20
2022-12-18T04:14:51.092Z,1018.20
2022-12-18T04:15:51.273Z,1018.22
2022-12-18T04:16:51.100Z,1018.25
2022-12-18T04:17:51.080Z,1018.30
2022-12-18T04:18:51.100Z,1018.29
2022-12-18T04:19:51.042Z,1018.31
2022-12-18T04:20:51.067Z,1018.31
2022-12-18T04:21:51.200Z,1018.32
2022-12-18T04:22:51.008Z,1018.29
2022-12-18T04:23:50.997Z,1018.29
2022-12-18T04:24:51.036Z,1018.29
2022-12-18T04:25:51.004Z,1018.27
2022-12-18T04:26:50.983Z,1018.26
2022-12-18T04:27:51.103Z,1018.26
2022-12-18T04:28:50.949Z,1018.25
2022-12-18T04:29:50.953Z,1018.25
2022-12-18T04:30:51.011Z,1018.25
2022-12-18T04:31:50.947Z,1018.20
2022-12-18T04:32:52.480Z,1018.24
2022-12-18T04:33:50.951Z,1018.25
2022-12-18T04:34:50.888Z,1018.25
2022-12-18T04:35:50.877Z,1018.28
2022-12-18T04:36:50.865Z,1018.30
2022-12-18T04:37:50.856Z,1018.29
2022-12-18T04:38:50.860Z,1018.30
2022-12-18T04:39:50.897Z,1018.26
2022-12-18T04:40:50.830Z,1018.26
2022-12-18T04:41:50.815Z,1018.30
2022-12-18T04:42:50.896Z,1018.33
2022-12-18T04:43:50.788Z,1018.30
2022-12-18T04:44:50.795Z,1018.32
2022-12-18T04:45:50.917Z,1018.33
2022-12-18T04:46:50.848Z,1018.35
2022-12-18T04:47:50.755Z,1018.37
2022-12-18T04:48:50.756Z,1018.36
2022-12-18T04:49:50.732Z,1018.34
2022-12-18T04:50:50.760Z,1018.37
2022-12-18T04:51:50.972Z,1018.39
2022-12-18T04:52:50.716Z,1018.40
2022-12-18T04:53:50.706Z,1018.41
2022-12-18T04:54:50.680Z,1018.41
2022-12-18T04:55:50.671Z,1018.42
2022-12-18T04:56:50.657Z,1018.42
2022-12-18T04:57:50.799Z,1018.40
2022-12-18T04:58:50.628Z,1018.40
2022-12-18T04:59:50.657Z,1018.39
2022-12-18T05:00:50.628Z,1018.35
2022-12-18T05:01:50.648Z,1018.35
2022-12-18T05:02:50.738Z,1018.34
2022-12-18T05:03:50.820Z,1018.32
2022-12-18T05:04:50.581Z,1018.31
2022-12-18T05:05:50.588Z,1018.31
2022-12-18T05:06:50.583Z,1018.33
2022-12-18T05:07:50.579Z,1018.36
2022-12-18T05:08:50.533Z,1018.36
2022-12-18T05:09:50.675Z,1018.39
2022-12-18T05:10:50.518Z,1018.40
2022-12-18T05:11:50.511Z,1018.42
2022-12-18T05:12:50.507Z,1018.40
2022-12-18T05:13:57.923Z,1018.40
2022-12-18T05:14:50.464Z,1018.45
2022-12-18T05:15:50.557Z,1018.43
2022-12-18T05:16:50.449Z,1018.50
2022-12-18T05:17:50.429Z,1018.53
2022-12-18T05:18:50.476Z,1018.53
2022-12-18T05:19:50.426Z,1018.57
2022-12-18T05:20:50.421Z,1018.57
2022-12-18T05:21:50.438Z,1018.57
2022-12-18T05:22:50.389Z,1018.59
2022-12-18T05:23:50.385Z,1018.60
2022-12-18T05:24:50.375Z,1018.62
2022-12-18T05:25:50.350Z,1018.61
2022-12-18T05:26:50.377Z,1018.63
2022-12-18T05:27:50.462Z,1018.66
2022-12-18T05:28:50.326Z,1018.66
2022-12-18T05:29:50.305Z,1018.69
2022-12-18T05:30:50.345Z,1018.67
2022-12-18T05:31:50.347Z,1018.72
2022-12-18T05:32:50.292Z,1018.74
2022-12-18T05:33:50.308Z,1018.73
2022-12-18T05:34:50.258Z,1018.71
2022-12-18T05:35:50.257Z,1018.69
2022-12-18T05:36:50.240Z,1018.69
2022-12-18T05:37:50.225Z,1018.71
2022-12-18T05:38:50.223Z,1018.72
2022-12-18T05:39:50.324Z,1018.71
2022-12-18T05:40:50.190Z,1018.73
2022-12-18T05:41:50.197Z,1018.75
2022-12-18T05:42:50.181Z,1018.73
2022-12-18T05:43:50.181Z,1018.71
2022-12-18T05:44:50.150Z,1018.72
2022-12-18T05:45:50.298Z,1018.72
2022-12-18T05:46:50.241Z,1018.69
2022-12-18T05:47:50.116Z,1018.70
2022-12-18T05:48:50.111Z,1018.72
2022-12-18T05:49:50.091Z,1018.70
2022-12-18T05:50:50.079Z,1018.71
2022-12-18T05:51:50.220Z,1018.75
2022-12-18T05:52:50.092Z,1018.68
2022-12-18T05:53:50.083Z,1018.67
2022-12-18T05:54:50.040Z,1018.66
2022-12-18T05:55:50.067Z,1018.67
2022-12-18T05:56:50.041Z,1018.66
2022-12-18T05:57:50.056Z,1018.67
2022-12-18T05:58:50.023Z,1018.67
2022-12-18T05:59:49.998Z,1018.65
2022-12-18T06:00:50.042Z,1018.59
2022-12-18T06:01:50.170Z,1018.56
2022-12-18T06:02:50.072Z,1018.56
2022-12-18T06:03:50.030Z,1018.57
2022-12-18T06:04:49.943Z,1018.57
2022-12-18T06:05:49.939Z,1018.58
2022-12-18T06:06:49.917Z,1018.62
2022-12-18T06:07:49.923Z,1018.64
2022-12-18T06:08:49.915Z,1018.64
2022-12-18T06:09:50.030Z,1018.63
2022-12-18T06:10:49.892Z,1018.60
2022-12-18T06:11:49.863Z,1018.63
2022-12-18T06:12:49.853Z,1018.60
2022-12-18T06:13:59.149Z,1018.63
2022-12-18T06:14:49.831Z,1018.61
2022-12-18T06:15:50.044Z,1018.61
2022-12-18T06:16:49.829Z,1018.62
2022-12-18T06:17:49.839Z,1018.66
2022-12-18T06:18:49.788Z,1018.69
2022-12-18T06:19:49.783Z,1018.75
2022-12-18T06:20:49.766Z,1018.78
2022-12-18T06:21:49.798Z,1018.84
2022-12-18T06:22:49.747Z,1018.84
2022-12-18T06:23:49.743Z,1018.84
2022-12-18T06:24:49.744Z,1018.84
2022-12-18T06:25:49.744Z,1018.86
2022-12-18T06:26:49.719Z,1018.86
2022-12-18T06:27:49.826Z,1018.81
2022-12-18T06:28:49.681Z,1018.79
2022-12-18T06:29:49.670Z,1018.77
2022-12-18T06:30:49.692Z,1018.75
2022-12-18T06:31:49.692Z,1018.80
2022-12-18T06:32:53.174Z,1018.82
2022-12-18T06:33:49.772Z,1018.81
2022-12-18T06:34:49.624Z,1018.80
2022-12-18T06:35:49.631Z,1018.82
2022-12-18T06:36:49.610Z,1018.83
2022-12-18T06:37:49.612Z,1018.85
2022-12-18T06:38:49.605Z,1018.88
2022-12-18T06:39:49.595Z,1018.91
2022-12-18T06:40:49.586Z,1018.95
2022-12-18T06:41:49.571Z,1018.98
2022-12-18T06:42:49.537Z,1019.01
2022-12-18T06:43:49.533Z,1018.98
2022-12-18T06:44:49.557Z,1018.96
2022-12-18T06:45:49.611Z,1018.96
2022-12-18T06:46:49.507Z,1018.95
2022-12-18T06:47:49.512Z,1018.97
2022-12-18T06:48:49.471Z,1019.00
2022-12-18T06:49:49.497Z,1018.99
2022-12-18T06:50:49.470Z,1018.99
2022-12-18T06:51:49.583Z,1018.99
2022-12-18T06:52:49.445Z,1018.98
2022-12-18T06:53:49.444Z,1018.98
2022-12-18T06:54:49.425Z,1018.98
2022-12-18T06:55:49.410Z,1018.96
2022-12-18T06:56:49.393Z,1018.96
2022-12-18T06:57:49.968Z,1018.97
2022-12-18T06:58:49.373Z,1018.99
2022-12-18T06:59:49.401Z,1018.99
2022-12-18T07:00:49.472Z,1018.98
2022-12-18T07:01:50.196Z,1018.98
2022-12-18T07:02:49.820Z,1019.02
2022-12-18T07:03:49.417Z,1019.04
2022-12-18T07:04:49.304Z,1019.06
2022-12-18T07:05:49.329Z,1019.08
2022-12-18T07:06:49.300Z,1019.04
2022-12-18T07:07:49.949Z,1019.04
2022-12-18T07:08:49.223Z,1019.07
2022-12-18T07:09:49.482Z,1019.07
2022-12-18T07:10:52.883Z,1019.10
2022-12-18T07:11:49.332Z,1019.14
2022-12-18T07:12:49.174Z,1019.15
2022-12-18T07:13:49.182Z,1019.19
2022-12-18T07:14:49.198Z,1019.24
2022-12-18T07:15:49.247Z,1019.28
2022-12-18T07:16:49.238Z,1019.30
2022-12-18T07:17:49.186Z,1019.31
2022-12-18T07:18:49.160Z,1019.31
2022-12-18T07:19:49.183Z,1019.27
2022-12-18T07:20:49.955Z,1019.25
2022-12-18T07:21:49.311Z,1019.25
2022-12-18T07:22:54.736Z,1019.25
2022-12-18T07:23:49.554Z,1019.26
2022-12-18T07:24:49.107Z,1019.30
2022-12-18T07:25:49.109Z,1019.30
2022-12-18T07:26:49.101Z,1019.32
2022-12-18T07:27:49.121Z,1019.33
2022-12-18T07:28:49.029Z,1019.33
2022-12-18T07:29:48.998Z,1019.32
2022-12-18T07:30:48.984Z,1019.30
2022-12-18T07:31:49.119Z,1019.28
2022-12-18T07:32:49.077Z,1019.29
2022-12-18T07:33:49.263Z,1019.26
2022-12-18T07:34:50.024Z,1019.24
2022-12-18T07:35:48.980Z,1019.25
2022-12-18T07:36:49.437Z,1019.25
2022-12-18T07:37:48.959Z,1019.27
2022-12-18T07:38:48.946Z,1019.34
2022-12-18T07:39:49.026Z,1019.37
2022-12-18T07:40:48.937Z,1019.38
2022-12-18T07:41:48.918Z,1019.39
2022-12-18T07:42:48.918Z,1019.44
2022-12-18T07:43:48.912Z,1019.42
2022-12-18T07:44:48.900Z,1019.47
2022-12-18T07:45:49.381Z,1019.49
2022-12-18T07:46:48.866Z,1019.52
2022-12-18T07:47:48.834Z,1019.54
2022-12-18T07:48:49.858Z,1019.53
2022-12-18T07:49:48.797Z,1019.54
2022-12-18T07:50:48.784Z,1019.58
2022-12-18T07:51:49.093Z,1019.57
2022-12-18T07:52:48.763Z,1019.60
2022-12-18T07:53:51.995Z,1019.59
2022-12-18T07:54:48.744Z,1019.60
2022-12-18T07:56:25.072Z,1019.59
2022-12-18T07:56:48.712Z,1019.64
2022-12-18T07:57:51.392Z,1019.67
2022-12-18T07:58:48.733Z,1019.72
2022-12-18T07:59:48.688Z,1019.78
2022-12-18T08:00:48.816Z,1019.76
2022-12-18T08:01:48.837Z,1019.76
2022-12-18T08:02:48.891Z,1019.77
2022-12-18T08:03:48.878Z,1019.78
2022-12-18T08:04:48.641Z,1019.75
2022-12-18T08:05:48.622Z,1019.74
2022-12-18T08:06:48.641Z,1019.73
2022-12-18T08:07:48.616Z,1019.73
2022-12-18T08:08:48.596Z,1019.71
2022-12-18T08:09:48.747Z,1019.75
2022-12-18T08:10:48.557Z,1019.71
2022-12-18T08:11:48.564Z,1019.72
2022-12-18T08:12:48.529Z,1019.73
2022-12-18T08:13:48.537Z,1019.69
2022-12-18T08:14:48.526Z,1019.68
2022-12-18T08:15:48.703Z,1019.64
2022-12-18T08:16:48.587Z,1019.62
2022-12-18T08:17:48.481Z,1019.62
2022-12-18T08:18:48.470Z,1019.60
2022-12-18T08:19:48.463Z,1019.61
2022-12-18T08:20:48.458Z,1019.62
2022-12-18T08:21:48.510Z,1019.62
2022-12-18T08:22:48.440Z,1019.63
2022-12-18T08:23:48.833Z,1019.66
2022-12-18T08:24:48.404Z,1019.64
2022-12-18T08:25:48.403Z,1019.65
2022-12-18T08:27:01.080Z,1019.62
2022-12-18T08:27:48.410Z,1019.63
2022-12-18T08:28:48.382Z,1019.61
2022-12-18T08:29:48.422Z,1019.62
2022-12-18T08:30:48.396Z,1019.61
2022-12-18T08:31:48.393Z,1019.60
2022-12-18T08:32:48.338Z,1019.64
2022-12-18T08:33:48.356Z,1019.62
2022-12-18T08:34:48.358Z,1019.62
2022-12-18T08:35:48.295Z,1019.61
2022-12-18T08:36:48.279Z,1019.58
2022-12-18T08:37:48.274Z,1019.58
2022-12-18T08:38:48.284Z,1019.58
2022-12-18T08:39:48.410Z,1019.52
2022-12-18T08:40:48.241Z,1019.51
2022-12-18T08:41:48.291Z,1019.51
2022-12-18T08:42:48.212Z,1019.48
2022-12-18T08:43:48.206Z,1019.50
2022-12-18T08:44:48.198Z,1019.53
2022-12-18T08:45:48.395Z,1019.53
2022-12-18T08:46:48.174Z,1019.59
2022-12-18T08:47:48.164Z,1019.61
2022-12-18T08:48:48.163Z,1019.63
2022-12-18T08:49:50.011Z,1019.60
2022-12-18T08:50:48.169Z,1019.63
2022-12-18T08:51:48.317Z,1019.61
2022-12-18T08:52:48.110Z,1019.61
2022-12-18T08:53:48.115Z,1019.62
2022-12-18T08:54:48.097Z,1019.61
2022-12-18T08:55:50.360Z,1019.65
2022-12-18T08:56:48.078Z,1019.71
2022-12-18T08:57:48.106Z,1019.73
2022-12-18T08:58:48.061Z,1019.78
2022-12-18T08:59:48.048Z,1019.82
2022-12-18T09:00:48.075Z,1019.79
2022-12-18T09:01:48.142Z,1019.84
2022-12-18T09:02:48.108Z,1019.83
2022-12-18T09:03:49.992Z,1019.86
2022-12-18T09:04:52.402Z,1019.87
2022-12-18T09:05:47.979Z,1019.90
2022-12-18T09:06:47.973Z,1019.93
2022-12-18T09:07:47.961Z,1019.95
2022-12-18T09:08:47.946Z,1019.97
2022-12-18T09:09:48.073Z,1020.01
2022-12-18T09:10:47.922Z,1020.01
2022-12-18T09:11:47.913Z,1020.05
2022-12-18T09:12:47.912Z,1020.05
2022-12-18T09:13:47.950Z,1020.08
2022-12-18T09:14:47.886Z,1020.05
2022-12-18T09:15:48.043Z,1020.06
2022-12-18T09:16:47.899Z,1020.02
2022-12-18T09:17:47.851Z,1020.02
2022-12-18T09:18:47.848Z,1020.00
2022-12-18T09:19:47.867Z,1020.09
2022-12-18T09:20:47.816Z,1020.04
2022-12-18T09:21:48.647Z,1020.04
2022-12-18T09:22:47.802Z,1020.05
2022-12-18T09:23:47.797Z,1020.08
2022-12-18T09:24:47.804Z,1020.08
2022-12-18T09:25:47.782Z,1020.11
2022-12-18T09:26:47.924Z,1020.14
2022-12-18T09:27:47.886Z,1020.15
2022-12-18T09:28:47.729Z,1020.15
2022-12-18T09:29:47.738Z,1020.18
2022-12-18T09:30:47.779Z,1020.15
2022-12-18T09:31:47.715Z,1020.17
2022-12-18T09:32:47.687Z,1020.14
2022-12-18T09:33:47.858Z,1020.12
2022-12-18T09:34:47.660Z,1020.11
2022-12-18T09:35:47.685Z,1020.15
2022-12-18T09:36:48.490Z,1020.10
2022-12-18T09:37:47.707Z,1020.07
2022-12-18T09:38:47.628Z,1020.02
2022-12-18T09:39:48.083Z,1020.04
2022-12-18T09:40:47.639Z,1020.02
2022-12-18T09:41:47.609Z,1020.00
2022-12-18T09:42:47.630Z,1019.97
2022-12-18T09:43:47.656Z,1020.00
2022-12-18T09:44:47.615Z,1020.00
2022-12-18T09:45:47.783Z,1019.96
2022-12-18T09:46:47.577Z,1019.94
2022-12-18T09:47:47.555Z,1019.91
2022-12-18T09:48:47.537Z,1019.91
2022-12-18T09:49:47.515Z,1019.97
2022-12-18T09:50:47.504Z,1019.96
2022-12-18T09:51:47.658Z,1019.99
2022-12-18T09:52:47.632Z,1020.07
2022-12-18T09:53:47.524Z,1020.10
2022-12-18T09:54:47.478Z,1020.08
2022-12-18T09:55:47.499Z,1020.16
2022-12-18T09:56:47.579Z,1020.10
2022-12-18T09:57:47.576Z,1020.12
2022-12-18T09:58:47.431Z,1020.12
2022-12-18T09:59:47.415Z,1020.09
2022-12-18T10:00:47.403Z,1020.06
2022-12-18T10:01:47.667Z,1020.02
2022-12-18T10:02:47.574Z,1019.98
2022-12-18T10:03:47.385Z,1019.97
2022-12-18T10:04:47.439Z,1019.97
2022-12-18T10:05:47.393Z,1019.94
2022-12-18T10:06:47.362Z,1019.96
2022-12-18T10:07:47.329Z,1019.94
2022-12-18T10:08:47.327Z,1019.97
2022-12-18T10:09:47.431Z,1019.95
2022-12-18T10:10:47.303Z,1019.96
2022-12-18T10:11:47.293Z,1019.96
2022-12-18T10:12:47.288Z,1019.96
2022-12-18T10:13:54.966Z,1019.97
2022-12-18T10:14:47.253Z,1020.00
2022-12-18T10:15:47.413Z,1020.02
2022-12-18T10:16:47.252Z,1020.01
2022-12-18T10:17:47.218Z,1019.99
2022-12-18T10:18:47.229Z,1020.04
2022-12-18T10:19:47.194Z,1020.03
2022-12-18T10:20:47.189Z,1020.04
2022-12-18T10:21:47.249Z,1020.03
2022-12-18T10:22:47.181Z,1020.01
2022-12-18T10:23:50.446Z,1020.00
2022-12-18T10:24:47.144Z,1019.98
2022-12-18T10:25:47.147Z,1019.97
2022-12-18T10:26:47.124Z,1019.99
2022-12-18T10:27:47.168Z,1019.98
2022-12-18T10:28:47.105Z,1020.00
2022-12-18T10:29:47.123Z,1020.03
2022-12-18T10:30:47.139Z,1020.05
2022-12-18T10:31:47.067Z,1020.11
2022-12-18T10:32:47.071Z,1020.12
2022-12-18T10:33:47.196Z,1020.19
2022-12-18T10:34:47.043Z,1020.21
2022-12-18T10:35:47.031Z,1020.23
2022-12-18T10:36:47.026Z,1020.26
2022-12-18T10:37:47.006Z,1020.25
2022-12-18T10:38:47.009Z,1020.20
2022-12-18T10:39:47.027Z,1020.18
2022-12-18T10:40:46.976Z,1020.15
2022-12-18T10:41:46.957Z,1020.14
2022-12-18T10:42:46.954Z,1020.09
2022-12-18T10:43:46.947Z,1020.06
2022-12-18T10:44:46.961Z,1020.04
2022-12-18T10:45:47.149Z,1020.02
2022-12-18T10:46:47.036Z,1020.01
2022-12-18T10:47:46.905Z,1020.03
2022-12-18T10:48:46.891Z,1020.06
2022-12-18T10:49:46.879Z,1020.10
2022-12-18T10:51:10.358Z,1020.11
2022-12-18T10:51:47.030Z,1020.11
2022-12-18T10:52:47.855Z,1020.13
2022-12-18T10:53:46.837Z,1020.13
2022-12-18T10:54:46.830Z,1020.14
2022-12-18T10:55:46.812Z,1020.16
2022-12-18T10:56:46.814Z,1020.17
2022-12-18T10:57:47.059Z,1020.18
2022-12-18T10:58:47.124Z,1020.20
2022-12-18T10:59:46.811Z,1020.22
2022-12-18T11:00:46.878Z,1020.20
2022-12-18T11:01:46.908Z,1020.20
2022-12-18T11:02:46.943Z,1020.19
2022-12-18T11:03:46.844Z,1020.20
2022-12-18T11:04:46.807Z,1020.21
2022-12-18T11:05:46.710Z,1020.27
2022-12-18T11:06:46.755Z,1020.29
2022-12-18T11:07:46.696Z,1020.35
2022-12-18T11:08:46.685Z,1020.40
2022-12-18T11:09:46.744Z,1020.42
2022-12-18T11:10:46.655Z,1020.45
2022-12-18T11:11:46.662Z,1020.47
2022-12-18T11:12:46.689Z,1020.51
2022-12-18T11:13:54.016Z,1020.52
2022-12-18T11:14:47.533Z,1020.53
2022-12-18T11:15:46.757Z,1020.54
2022-12-18T11:17:03.131Z,1020.58
2022-12-18T11:17:46.586Z,1020.60
2022-12-18T11:18:46.608Z,1020.64
2022-12-18T11:19:46.573Z,1020.64
2022-12-18T11:20:46.564Z,1020.64
2022-12-18T11:21:46.569Z,1020.62
2022-12-18T11:22:46.543Z,1020.59
2022-12-18T11:23:46.530Z,1020.58
2022-12-18T11:24:57.422Z,1020.57
2022-12-18T11:25:46.501Z,1020.59
2022-12-18T11:26:47.309Z,1020.60
2022-12-18T11:27:46.610Z,1020.60
2022-12-18T11:28:46.470Z,1020.60
2022-12-18T11:29:47.027Z,1020.59
2022-12-18T11:30:46.474Z,1020.62
2022-12-18T11:31:46.543Z,1020.62
2022-12-18T11:32:46.441Z,1020.65
2022-12-18T11:34:05.155Z,1020.70
2022-12-18T11:34:46.410Z,1020.67
2022-12-18T11:35:46.395Z,1020.71
2022-12-18T11:36:46.427Z,1020.73
2022-12-18T11:37:46.391Z,1020.74
2022-12-18T11:38:46.383Z,1020.76
2022-12-18T11:39:46.484Z,1020.77
2022-12-18T11:40:46.369Z,1020.75
2022-12-18T11:41:46.343Z,1020.77
2022-12-18T11:42:46.361Z,1020.77
2022-12-18T11:43:47.022Z,1020.79
2022-12-18T11:44:46.311Z,1020.79
2022-12-18T11:45:46.438Z,1020.79
2022-12-18T11:46:46.306Z,1020.78
2022-12-18T11:47:46.266Z,1020.76
2022-12-18T11:48:46.283Z,1020.72
2022-12-18T11:49:46.247Z,1020.73
2022-12-18T11:50:46.263Z,1020.69
2022-12-18T11:51:46.380Z,1020.68
2022-12-18T11:52:47.125Z,1020.66
2022-12-18T11:53:46.207Z,1020.65
2022-12-18T11:54:46.202Z,1020.64
2022-12-18T11:55:46.196Z,1020.63
2022-12-18T11:56:46.176Z,1020.64
2022-12-18T11:57:46.215Z,1020.66
2022-12-18T11:58:46.169Z,1020.67
2022-12-18T11:59:46.133Z,1020.67
2022-12-18T12:00:46.203Z,1020.72
2022-12-18T12:01:46.298Z,1020.73
2022-12-18T12:02:46.289Z,1020.72
2022-12-18T12:03:46.302Z,1020.72
2022-12-18T12:04:46.093Z,1020.75
2022-12-18T12:05:46.067Z,1020.74